Ocean Drive Beach, South Carolina
Current Conditions -  °F | °C
As of 10:12 AM on Monday 24 Nov 2014 (Local Time) from KCRE Reporting Station
Haze Haze  
Wind Chill: 66°   Ceiling: 300
Heat Index: 66°   Visibility: 0.75mi
Dew Point: 65°   Wind: 14mph
Humidity: 96%   Direction: 220°SW
Pressure: 29.9"   Gusts: NA
Location:  33.8371°N, 78.6471°W
Report Text: KCRE 241512Z 22012KT 3/4SM BR OVC003 19/18 A2990 RMK AO1 T01890183
Loading
Personal Weather Stations






























Interactive Weather Map New forecast layout! Learn more

10-Day Weather Forecast

Advertisements
Track Severe Weather on mobile